Springdale, Idaho
Current Conditions -  °F | °C
As of 11:22 AM on Monday 26 Jan 2015 (Local Time) from KBYI Reporting Station
Haze Haze  
Wind Chill: 23°   Ceiling: 200
Heat Index: 33°   Visibility: 6mi
Dew Point: 31°   Wind: 14mph
Humidity: 92%   Direction: 50°NE
Pressure: 30.31"   Gusts: NA
Location:  42.5011°N, 113.814°W
Report Text: KBYI 261822Z AUTO 05012KT 6SM BR OVC002 01/M01 A3031 RMK AO2 T00061006
Loading
Personal Weather Stations






























Interactive Weather Map New forecast layout! Learn more

10-Day Weather Forecast

Advertisements
Track Severe Weather on mobile